Time;durP1;ratioP1;P1;durP2;ratioP2;P2;SDS_P1;SDS_P2;PMS_P1;PMS_P2;Temp;Humidity;BMP_temperature;BMP_pressure;BME280_temperature;BME280_humidity;BME280_pressure;Samples;Min_cycle;Max_cycle;Signal;HPM_P1;HPM_P2
2023/09/14 00:00:20;;;;;;;11.73;3.20;;;;;;;;;;5130894;27;20187;-76
2023/09/14 00:02:45;;;;;;;8.05;3.38;;;;;;;;;;5134284;27;20202;-76
2023/09/14 00:05:11;;;;;;;6.13;3.42;;;;;;;;;;5140852;27;20213;-74
2023/09/14 00:07:37;;;;;;;8.00;3.50;;;;;;;;;;5118299;27;20574;-74
2023/09/14 00:10:02;;;;;;;9.27;3.33;;;;;;;;;;5147707;27;20187;-74
2023/09/14 00:12:28;;;;;;;10.05;3.50;;;;;;;;;;5140093;27;20652;-75
2023/09/14 00:14:53;;;;;;;11.95;3.65;;;;;;;;;;5136355;27;20182;-75
2023/09/14 00:17:19;;;;;;;6.90;3.70;;;;;;;;;;5143406;27;20226;-74
2023/09/14 00:19:44;;;;;;;6.68;3.90;;;;;;;;;;5123820;27;20218;-74
2023/09/14 00:22:09;;;;;;;7.15;3.55;;;;;;;;;;5134392;27;20553;-74
2023/09/14 00:24:38;;;;;;;11.55;3.63;;;;;;;;;;5134212;27;20279;-74
2023/09/14 00:27:03;;;;;;;10.05;4.35;;;;;;;;;;5117974;27;20185;-74
2023/09/14 00:29:29;;;;;;;11.30;4.68;;;;;;;;;;5136928;27;20198;-74
2023/09/14 00:31:55;;;;;;;9.48;3.95;;;;;;;;;;5118714;27;20191;-75
2023/09/14 00:34:20;;;;;;;9.98;3.67;;;;;;;;;;5131483;27;20182;-74
2023/09/14 00:36:45;;;;;;;8.75;3.63;;;;;;;;;;5119368;27;20199;-74
2023/09/14 00:39:11;;;;;;;9.07;4.07;;;;;;;;;;5123330;27;20701;-74
2023/09/14 00:41:36;;;;;;;8.23;3.70;;;;;;;;;;5133483;27;20952;-74
2023/09/14 00:44:02;;;;;;;9.27;3.33;;;;;;;;;;5145567;27;20232;-74
2023/09/14 00:46:29;;;;;;;6.90;4.03;;;;;;;;;;5146970;27;20617;-74
2023/09/14 00:48:56;;;;;;;6.00;4.55;;;;;;;;;;5118852;27;20652;-75
2023/09/14 00:51:23;;;;;;;9.15;5.03;;;;;;;;;;5138280;27;20189;-74
2023/09/14 00:53:50;;;;;;;9.95;4.00;;;;;;;;;;5127705;27;20614;-74
2023/09/14 00:56:16;;;;;;;10.60;4.15;;;;;;;;;;5122285;27;20257;-74
2023/09/14 00:58:42;;;;;;;11.65;4.78;;;;;;;;;;5146541;27;20248;-75
2023/09/14 01:01:08;;;;;;;8.20;3.88;;;;;;;;;;5126676;27;20178;-75
2023/09/14 01:03:33;;;;;;;8.95;4.05;;;;;;;;;;5126922;27;20588;-73
2023/09/14 01:05:59;;;;;;;7.80;4.15;;;;;;;;;;5137063;27;20224;-74
2023/09/14 01:08:25;;;;;;;6.68;4.07;;;;;;;;;;5145008;27;20178;-74
2023/09/14 01:10:50;;;;;;;9.13;4.57;;;;;;;;;;5109911;27;20190;-74
2023/09/14 01:13:29;;;;;;;7.82;3.88;;;;;;;;;;5120714;27;20190;-74
2023/09/14 01:16:04;;;;;;;7.10;4.30;;;;;;;;;;5133072;27;20234;-74
2023/09/14 01:18:42;;;;;;;9.75;4.07;;;;;;;;;;5135616;27;20220;-74
2023/09/14 01:21:41;;;;;;;10.02;4.03;;;;;;;;;;5131140;27;20769;-74
2023/09/14 01:24:32;;;;;;;7.63;3.42;;;;;;;;;;5142980;27;20214;-74
2023/09/14 01:26:58;;;;;;;9.10;4.30;;;;;;;;;;5124737;27;20552;-74
2023/09/14 01:29:23;;;;;;;11.70;4.07;;;;;;;;;;5131713;27;20191;-74
2023/09/14 01:31:49;;;;;;;10.73;3.53;;;;;;;;;;5136601;27;20318;-74
2023/09/14 01:34:15;;;;;;;7.93;3.95;;;;;;;;;;5112723;27;20639;-74
2023/09/14 01:36:56;;;;;;;9.88;3.92;;;;;;;;;;5121823;27;20236;-74
2023/09/14 01:39:24;;;;;;;9.00;3.53;;;;;;;;;;5122814;27;20186;-74
2023/09/14 01:41:55;;;;;;;6.93;4.13;;;;;;;;;;5125661;27;20175;-74
2023/09/14 01:44:27;;;;;;;4.97;3.58;;;;;;;;;;5124293;27;20194;-74
2023/09/14 01:46:54;;;;;;;7.35;3.60;;;;;;;;;;5124605;27;20181;-74
2023/09/14 01:49:20;;;;;;;8.20;3.63;;;;;;;;;;5122320;27;20190;-74
2023/09/14 01:51:46;;;;;;;8.35;4.00;;;;;;;;;;5124882;27;20705;-74
2023/09/14 01:54:11;;;;;;;7.20;4.00;;;;;;;;;;5120287;27;20179;-74
2023/09/14 01:56:37;;;;;;;10.13;3.60;;;;;;;;;;5143417;27;20218;-74
2023/09/14 01:59:02;;;;;;;7.40;3.53;;;;;;;;;;5134904;27;20539;-74
2023/09/14 02:01:28;;;;;;;5.45;3.90;;;;;;;;;;5147331;27;20605;-74
2023/09/14 02:03:54;;;;;;;7.13;3.55;;;;;;;;;;5134088;27;20253;-74
2023/09/14 02:06:19;;;;;;;7.63;3.45;;;;;;;;;;5121876;27;20557;-74
2023/09/14 02:08:45;;;;;;;12.05;4.13;;;;;;;;;;5119635;27;20182;-74
2023/09/14 02:11:13;;;;;;;7.28;4.07;;;;;;;;;;5128021;27;20231;-74
2023/09/14 02:13:39;;;;;;;7.32;3.70;;;;;;;;;;5125504;27;20466;-74
2023/09/14 02:16:04;;;;;;;7.95;2.92;;;;;;;;;;5131056;27;20189;-74
2023/09/14 02:18:29;;;;;;;6.30;3.28;;;;;;;;;;5139054;27;20222;-72
2023/09/14 02:20:55;;;;;;;5.40;3.55;;;;;;;;;;5124046;27;20629;-74
2023/09/14 02:23:20;;;;;;;9.23;4.05;;;;;;;;;;5152250;27;20297;-74
2023/09/14 02:25:46;;;;;;;5.30;3.45;;;;;;;;;;5141006;27;20190;-72
2023/09/14 02:28:13;;;;;;;9.77;3.60;;;;;;;;;;5114267;27;20712;-74
2023/09/14 02:30:39;;;;;;;7.75;3.58;;;;;;;;;;5130105;27;20258;-73
2023/09/14 02:33:06;;;;;;;8.27;3.58;;;;;;;;;;5145981;27;20544;-73
2023/09/14 02:35:31;;;;;;;8.77;3.42;;;;;;;;;;5123263;27;20190;-74
2023/09/14 02:37:57;;;;;;;10.43;3.80;;;;;;;;;;5146589;27;20592;-74
2023/09/14 02:40:22;;;;;;;10.32;4.15;;;;;;;;;;5134859;27;20213;-74
2023/09/14 02:42:48;;;;;;;7.60;3.92;;;;;;;;;;5138496;27;20259;-74
2023/09/14 02:45:13;;;;;;;9.23;3.92;;;;;;;;;;5139376;27;20193;-74
2023/09/14 02:47:38;;;;;;;10.13;5.20;;;;;;;;;;5133008;27;20222;-74
2023/09/14 02:50:04;;;;;;;13.45;4.20;;;;;;;;;;5129879;27;20186;-74
2023/09/14 02:52:29;;;;;;;9.23;4.55;;;;;;;;;;5135715;27;20678;-74
2023/09/14 02:54:55;;;;;;;12.27;4.18;;;;;;;;;;5140505;27;20206;-74
2023/09/14 02:57:20;;;;;;;8.88;4.05;;;;;;;;;;5139486;27;20704;-74
2023/09/14 02:59:45;;;;;;;8.85;3.97;;;;;;;;;;5139600;27;20193;-74
2023/09/14 03:02:11;;;;;;;7.57;3.42;;;;;;;;;;5112530;27;20705;-74
2023/09/14 03:04:36;;;;;;;9.80;3.45;;;;;;;;;;5111990;27;20695;-74
2023/09/14 03:07:01;;;;;;;5.88;2.80;;;;;;;;;;5144879;27;20221;-74
2023/09/14 03:09:27;;;;;;;7.18;3.35;;;;;;;;;;5143710;27;20221;-74
2023/09/14 03:11:54;;;;;;;5.00;2.90;;;;;;;;;;5142295;27;20248;-74
2023/09/14 03:14:19;;;;;;;8.68;3.08;;;;;;;;;;5122952;27;20626;-75
2023/09/14 03:16:45;;;;;;;4.88;2.70;;;;;;;;;;5142526;27;20197;-75
2023/09/14 03:19:10;;;;;;;6.60;3.28;;;;;;;;;;5138018;27;20567;-75
2023/09/14 03:21:35;;;;;;;3.92;2.72;;;;;;;;;;5143503;27;20260;-75
2023/09/14 03:24:01;;;;;;;4.47;1.90;;;;;;;;;;5127406;27;20190;-75
2023/09/14 03:26:27;;;;;;;4.90;2.03;;;;;;;;;;5144519;27;20187;-75
2023/09/14 03:28:53;;;;;;;4.40;2.00;;;;;;;;;;5131735;27;20182;-74
2023/09/14 03:31:19;;;;;;;1.95;1.40;;;;;;;;;;5116530;27;20182;-73
2023/09/14 03:33:49;;;;;;;2.75;1.60;;;;;;;;;;5145416;27;20579;-74
2023/09/14 03:36:16;;;;;;;8.05;1.40;;;;;;;;;;5144942;27;20664;-75
2023/09/14 03:38:42;;;;;;;2.75;1.20;;;;;;;;;;5142445;27;20213;-74
2023/09/14 03:41:07;;;;;;;4.57;1.27;;;;;;;;;;5141476;27;20186;-75
2023/09/14 03:43:32;;;;;;;3.67;1.23;;;;;;;;;;5118744;27;20343;-74
2023/09/14 03:45:58;;;;;;;1.90;1.20;;;;;;;;;;5138487;27;20197;-75
2023/09/14 03:48:24;;;;;;;2.15;1.10;;;;;;;;;;5138424;27;20229;-75
2023/09/14 03:50:50;;;;;;;2.97;1.05;;;;;;;;;;5141599;27;20187;-75
2023/09/14 03:53:15;;;;;;;2.55;1.10;;;;;;;;;;5116580;27;20196;-74
2023/09/14 03:55:41;;;;;;;1.30;1.05;;;;;;;;;;5114385;27;20238;-75
2023/09/14 03:58:07;;;;;;;3.10;1.08;;;;;;;;;;5118789;27;20573;-74
2023/09/14 04:00:33;;;;;;;0.93;0.82;;;;;;;;;;5119831;27;20243;-74
2023/09/14 04:02:58;;;;;;;1.38;1.00;;;;;;;;;;5108568;27;20246;-75
2023/09/14 04:05:23;;;;;;;2.65;1.13;;;;;;;;;;5139311;27;20270;-75
2023/09/14 04:07:49;;;;;;;3.08;1.15;;;;;;;;;;5106190;27;20278;-74
2023/09/14 04:10:14;;;;;;;1.55;1.27;;;;;;;;;;5132512;27;20228;-74
2023/09/14 04:12:43;;;;;;;1.85;1.15;;;;;;;;;;5135434;27;20255;-74
2023/09/14 04:15:09;;;;;;;4.90;1.20;;;;;;;;;;5128347;27;20197;-75
2023/09/14 04:17:35;;;;;;;4.20;1.08;;;;;;;;;;5140976;27;20312;-75
2023/09/14 04:20:09;;;;;;;2.90;1.27;;;;;;;;;;5144029;27;20196;-74
2023/09/14 04:22:34;;;;;;;2.95;1.27;;;;;;;;;;5136918;27;20741;-74
2023/09/14 04:24:59;;;;;;;6.88;1.33;;;;;;;;;;5124361;27;20198;-75
2023/09/14 04:27:25;;;;;;;1.58;1.15;;;;;;;;;;5139136;27;20551;-75
2023/09/14 04:29:50;;;;;;;3.42;1.80;;;;;;;;;;5139808;27;20238;-74
2023/09/14 04:32:15;;;;;;;1.40;1.10;;;;;;;;;;5126820;27;20206;-74
2023/09/14 04:34:41;;;;;;;4.25;1.58;;;;;;;;;;5113003;27;20186;-74
2023/09/14 04:37:06;;;;;;;4.50;1.70;;;;;;;;;;5132088;27;20273;-74
2023/09/14 04:39:32;;;;;;;3.45;2.25;;;;;;;;;;5113408;27;20194;-74
2023/09/14 04:41:57;;;;;;;3.55;2.00;;;;;;;;;;5128548;27;20195;-74
2023/09/14 04:44:22;;;;;;;3.28;1.88;;;;;;;;;;5148518;27;20567;-74
2023/09/14 04:46:47;;;;;;;2.17;1.63;;;;;;;;;;5119802;27;20206;-74
2023/09/14 04:49:13;;;;;;;3.20;1.80;;;;;;;;;;5136043;27;20318;-74
2023/09/14 04:51:38;;;;;;;3.95;1.65;;;;;;;;;;5137759;27;20253;-74
2023/09/14 04:54:04;;;;;;;2.35;2.00;;;;;;;;;;5145103;27;20501;-74
2023/09/14 04:56:29;;;;;;;3.30;1.58;;;;;;;;;;5139842;27;20648;-74
2023/09/14 04:58:54;;;;;;;3.15;1.73;;;;;;;;;;5111183;27;20280;-74
2023/09/14 05:01:20;;;;;;;1.95;1.65;;;;;;;;;;5139163;27;20198;-74
2023/09/14 05:03:45;;;;;;;2.35;1.55;;;;;;;;;;5133267;27;20298;-74
2023/09/14 05:06:11;;;;;;;3.22;1.50;;;;;;;;;;5112428;27;20311;-74
2023/09/14 05:08:36;;;;;;;4.05;1.73;;;;;;;;;;5131891;27;20217;-74
2023/09/14 05:11:03;;;;;;;3.83;1.90;;;;;;;;;;5142556;27;20191;-74
2023/09/14 05:13:29;;;;;;;2.67;2.05;;;;;;;;;;5142069;27;20206;-74
2023/09/14 05:15:54;;;;;;;3.75;1.90;;;;;;;;;;5139168;27;20767;-74
2023/09/14 05:18:20;;;;;;;2.67;2.30;;;;;;;;;;5142233;27;20202;-74
2023/09/14 05:20:48;;;;;;;3.50;1.92;;;;;;;;;;5099649;28;20338;-74
2023/09/14 05:23:13;;;;;;;5.90;2.60;;;;;;;;;;5143735;27;20268;-74
2023/09/14 05:25:40;;;;;;;4.03;2.13;;;;;;;;;;5118687;27;20319;-74
2023/09/14 05:28:06;;;;;;;5.03;2.42;;;;;;;;;;5131188;27;20243;-74
2023/09/14 05:30:32;;;;;;;3.72;2.10;;;;;;;;;;5139380;27;20205;-74
2023/09/14 05:32:58;;;;;;;6.75;2.40;;;;;;;;;;5118233;28;20193;-75
2023/09/14 05:35:23;;;;;;;5.95;2.35;;;;;;;;;;5115593;28;20559;-74
2023/09/14 05:37:49;;;;;;;5.25;2.78;;;;;;;;;;5113813;27;20175;-75
2023/09/14 05:40:14;;;;;;;8.10;2.92;;;;;;;;;;5138012;27;20197;-75
2023/09/14 05:42:40;;;;;;;4.43;2.53;;;;;;;;;;5143477;27;20228;-75
2023/09/14 05:45:07;;;;;;;5.50;2.60;;;;;;;;;;5141173;27;20233;-75
2023/09/14 05:47:32;;;;;;;5.20;2.05;;;;;;;;;;5141065;27;20206;-74
2023/09/14 05:49:58;;;;;;;3.70;2.67;;;;;;;;;;5120150;28;20657;-74
2023/09/14 05:52:23;;;;;;;3.58;2.28;;;;;;;;;;5116754;27;20197;-74
2023/09/14 05:54:49;;;;;;;3.30;2.40;;;;;;;;;;5113324;27;20186;-74
2023/09/14 05:57:14;;;;;;;4.03;2.33;;;;;;;;;;5117392;27;20321;-74
2023/09/14 05:59:40;;;;;;;3.97;2.15;;;;;;;;;;5133109;27;20190;-74
2023/09/14 06:02:06;;;;;;;6.72;2.25;;;;;;;;;;5134055;27;20191;-74
2023/09/14 06:04:31;;;;;;;4.60;2.00;;;;;;;;;;5140586;27;20208;-75
2023/09/14 06:06:57;;;;;;;4.55;2.40;;;;;;;;;;5108197;27;20214;-74
2023/09/14 06:09:22;;;;;;;4.50;2.20;;;;;;;;;;5129443;27;20194;-74
2023/09/14 06:11:48;;;;;;;2.47;1.95;;;;;;;;;;5133051;27;20547;-74
2023/09/14 06:14:13;;;;;;;3.17;2.10;;;;;;;;;;5139721;27;20211;-73
2023/09/14 06:16:38;;;;;;;4.05;2.40;;;;;;;;;;5133976;27;20209;-73
2023/09/14 06:19:04;;;;;;;5.40;2.20;;;;;;;;;;5132790;27;20332;-74
2023/09/14 06:21:29;;;;;;;2.47;2.00;;;;;;;;;;5130767;27;20844;-73
2023/09/14 06:23:55;;;;;;;2.40;2.20;;;;;;;;;;5134805;27;20190;-74
2023/09/14 06:26:20;;;;;;;4.95;3.03;;;;;;;;;;5120036;27;20667;-74
2023/09/14 06:28:46;;;;;;;3.60;2.40;;;;;;;;;;5138778;27;20194;-74
2023/09/14 06:31:11;;;;;;;6.60;2.95;;;;;;;;;;5116071;27;20182;-74
2023/09/14 06:33:36;;;;;;;5.00;2.88;;;;;;;;;;5135986;27;20620;-73
2023/09/14 06:36:02;;;;;;;8.55;3.70;;;;;;;;;;5119620;27;20193;-74
2023/09/14 06:38:27;;;;;;;7.70;3.00;;;;;;;;;;5131666;27;20756;-74
2023/09/14 06:40:53;;;;;;;3.63;2.53;;;;;;;;;;5137384;27;20193;-74
2023/09/14 06:43:18;;;;;;;9.45;4.78;;;;;;;;;;5143572;27;20197;-74
2023/09/14 06:45:44;;;;;;;10.82;3.63;;;;;;;;;;5134146;27;20194;-74
2023/09/14 06:48:09;;;;;;;10.05;3.78;;;;;;;;;;5124875;27;20346;-75
2023/09/14 06:50:34;;;;;;;12.02;4.05;;;;;;;;;;5137893;27;20186;-75
2023/09/14 06:53:00;;;;;;;9.40;4.18;;;;;;;;;;5138278;27;20186;-75
2023/09/14 06:55:25;;;;;;;7.85;4.97;;;;;;;;;;5137548;27;20559;-75
2023/09/14 06:57:51;;;;;;;10.70;4.32;;;;;;;;;;5136408;27;20585;-75
2023/09/14 07:00:20;;;;;;;10.20;4.60;;;;;;;;;;5141030;27;20203;-75
2023/09/14 07:02:47;;;;;;;9.98;4.70;;;;;;;;;;5109962;27;20227;-75
2023/09/14 07:05:13;;;;;;;11.15;4.28;;;;;;;;;;5117654;27;20186;-74
2023/09/14 07:07:39;;;;;;;8.48;4.60;;;;;;;;;;5145216;27;20210;-74
2023/09/14 07:10:06;;;;;;;13.80;4.63;;;;;;;;;;5127483;27;20243;-73
2023/09/14 07:12:31;;;;;;;9.55;4.93;;;;;;;;;;5134919;27;20221;-74
2023/09/14 07:14:57;;;;;;;13.27;4.75;;;;;;;;;;5148845;27;20207;-74
2023/09/14 07:17:23;;;;;;;12.73;5.32;;;;;;;;;;5141981;27;20729;-74
2023/09/14 07:19:49;;;;;;;9.20;4.20;;;;;;;;;;5125543;27;20198;-74
2023/09/14 07:22:15;;;;;;;9.95;4.85;;;;;;;;;;5123932;27;20182;-74
2023/09/14 07:24:40;;;;;;;13.18;5.18;;;;;;;;;;5115786;27;20468;-74
2023/09/14 07:27:05;;;;;;;16.08;5.07;;;;;;;;;;5134763;27;20622;-74
2023/09/14 07:29:31;;;;;;;11.80;4.57;;;;;;;;;;5132428;27;20198;-74
2023/09/14 07:31:57;;;;;;;8.65;4.22;;;;;;;;;;5131867;27;20189;-74
2023/09/14 07:34:23;;;;;;;11.98;4.97;;;;;;;;;;5122681;27;20191;-74
2023/09/14 07:36:49;;;;;;;12.13;4.82;;;;;;;;;;5143308;27;20214;-74
2023/09/14 07:39:15;;;;;;;20.55;5.35;;;;;;;;;;5135677;27;20202;-74
2023/09/14 07:41:41;;;;;;;9.90;5.05;;;;;;;;;;5144501;27;21531;-74
2023/09/14 07:44:06;;;;;;;12.52;4.60;;;;;;;;;;5110330;27;20213;-75
2023/09/14 07:46:32;;;;;;;13.48;4.53;;;;;;;;;;5142454;27;20216;-75
2023/09/14 07:48:58;;;;;;;12.88;4.82;;;;;;;;;;5123115;27;20191;-73
2023/09/14 07:51:23;;;;;;;15.07;4.85;;;;;;;;;;5133596;27;20186;-74
2023/09/14 07:53:48;;;;;;;12.00;3.80;;;;;;;;;;5119845;27;20218;-74
2023/09/14 07:56:14;;;;;;;10.60;4.28;;;;;;;;;;5114815;27;20235;-74
2023/09/14 07:58:39;;;;;;;11.50;3.65;;;;;;;;;;5111706;27;20217;-74
2023/09/14 08:01:04;;;;;;;13.27;3.97;;;;;;;;;;5122172;27;20206;-74
2023/09/14 08:03:30;;;;;;;9.80;3.53;;;;;;;;;;5113340;27;20217;-74
2023/09/14 08:05:56;;;;;;;9.38;3.60;;;;;;;;;;5109207;28;20693;-74
2023/09/14 08:08:22;;;;;;;13.68;2.92;;;;;;;;;;5110449;27;20526;-75
2023/09/14 08:10:51;;;;;;;14.82;3.85;;;;;;;;;;5113534;27;20339;-74
2023/09/14 08:13:17;;;;;;;8.13;3.30;;;;;;;;;;5119468;27;20188;-74
2023/09/14 08:15:42;;;;;;;10.52;3.13;;;;;;;;;;5117380;27;20684;-74
2023/09/14 08:18:07;;;;;;;12.95;3.50;;;;;;;;;;5115583;27;20293;-75
2023/09/14 08:20:38;;;;;;;7.65;2.90;;;;;;;;;;5116438;27;20218;-75
2023/09/14 08:23:03;;;;;;;11.85;2.92;;;;;;;;;;5116538;27;20622;-75
2023/09/14 08:25:29;;;;;;;13.02;3.33;;;;;;;;;;5124343;27;20289;-75
2023/09/14 08:27:56;;;;;;;11.13;2.85;;;;;;;;;;5122272;27;20246;-75
2023/09/14 08:30:22;;;;;;;13.57;2.88;;;;;;;;;;5112579;27;20204;-75
2023/09/14 08:32:48;;;;;;;9.57;2.65;;;;;;;;;;5107679;28;20233;-74
2023/09/14 08:35:24;;;;;;;9.55;2.67;;;;;;;;;;5116579;27;20631;-74
2023/09/14 08:37:53;;;;;;;11.90;3.03;;;;;;;;;;5109909;27;20199;-74
2023/09/14 08:40:19;;;;;;;12.57;2.53;;;;;;;;;;5115146;27;20528;-74
2023/09/14 08:42:51;;;;;;;10.30;2.50;;;;;;;;;;5098193;28;20270;-74
2023/09/14 08:45:23;;;;;;;12.77;2.30;;;;;;;;;;5115467;27;20183;-74
2023/09/14 08:47:50;;;;;;;9.23;2.58;;;;;;;;;;5116384;27;20211;-74
2023/09/14 08:50:17;;;;;;;11.13;2.38;;;;;;;;;;5112998;27;20183;-74
2023/09/14 08:52:44;;;;;;;7.57;2.17;;;;;;;;;;5109875;28;20262;-72
2023/09/14 08:55:11;;;;;;;9.15;1.85;;;;;;;;;;5125599;27;20541;-72
2023/09/14 08:57:39;;;;;;;8.70;2.20;;;;;;;;;;5119439;27;20179;-73
2023/09/14 09:00:17;;;;;;;6.70;1.70;;;;;;;;;;5111903;27;20197;-72
2023/09/14 09:02:50;;;;;;;5.63;1.60;;;;;;;;;;5136010;27;20182;-73
2023/09/14 09:05:16;;;;;;;8.93;2.00;;;;;;;;;;5118712;27;20210;-73
2023/09/14 09:07:44;;;;;;;5.22;1.55;;;;;;;;;;5120611;28;20206;-73
2023/09/14 09:10:38;;;;;;;13.48;1.77;;;;;;;;;;5138087;27;20179;-74
2023/09/14 09:13:04;;;;;;;6.80;1.48;;;;;;;;;;5125129;27;20187;-74
2023/09/14 09:15:36;;;;;;;6.38;1.80;;;;;;;;;;5112148;28;20182;-74
2023/09/14 09:18:05;;;;;;;6.95;2.10;;;;;;;;;;5112000;27;20195;-74
2023/09/14 09:20:32;;;;;;;6.38;2.00;;;;;;;;;;5125150;27;20200;-74
2023/09/14 09:22:59;;;;;;;5.30;1.80;;;;;;;;;;5120045;28;20228;-74
2023/09/14 09:25:25;;;;;;;10.00;1.92;;;;;;;;;;5118205;28;20197;-74
2023/09/14 09:28:01;;;;;;;5.55;1.50;;;;;;;;;;5135311;27;20214;-74
2023/09/14 09:30:33;;;;;;;9.57;2.00;;;;;;;;;;5134443;27;20248;-74
2023/09/14 09:32:59;;;;;;;8.07;2.03;;;;;;;;;;5113830;28;20183;-74
2023/09/14 09:35:26;;;;;;;7.00;1.50;;;;;;;;;;5106842;27;20760;-74
2023/09/14 09:37:53;;;;;;;7.10;1.83;;;;;;;;;;5111783;27;20262;-74
2023/09/14 09:40:21;;;;;;;5.47;1.63;;;;;;;;;;5111861;27;20190;-74
2023/09/14 09:42:46;;;;;;;7.72;1.40;;;;;;;;;;5144587;27;20311;-74
2023/09/14 09:45:13;;;;;;;8.50;1.83;;;;;;;;;;5136990;27;20261;-74
2023/09/14 09:47:39;;;;;;;7.10;1.83;;;;;;;;;;5119059;27;20273;-74
2023/09/14 09:50:07;;;;;;;7.18;2.28;;;;;;;;;;5139784;27;20558;-74
2023/09/14 09:52:33;;;;;;;9.55;2.13;;;;;;;;;;5115274;28;20174;-73
2023/09/14 09:54:58;;;;;;;8.95;1.70;;;;;;;;;;5123393;27;20213;-74
2023/09/14 09:57:30;;;;;;;7.70;2.00;;;;;;;;;;5147867;27;20267;-74
2023/09/14 09:59:56;;;;;;;11.13;1.80;;;;;;;;;;5143527;27;20880;-73
2023/09/14 10:02:31;;;;;;;9.35;1.58;;;;;;;;;;5115547;27;20214;-74
2023/09/14 10:04:58;;;;;;;7.82;1.85;;;;;;;;;;5151143;27;20193;-73
2023/09/14 10:07:24;;;;;;;9.45;2.33;;;;;;;;;;5135801;27;20198;-74
2023/09/14 10:09:54;;;;;;;11.32;2.20;;;;;;;;;;5140168;27;21282;-74
2023/09/14 10:12:24;;;;;;;6.25;1.30;;;;;;;;;;5143527;27;20197;-73
2023/09/14 10:14:52;;;;;;;7.43;1.80;;;;;;;;;;5150255;27;20259;-73
2023/09/14 10:17:22;;;;;;;8.57;1.88;;;;;;;;;;5144388;27;20207;-73
2023/09/14 10:19:48;;;;;;;6.60;1.85;;;;;;;;;;5121067;27;20507;-73
2023/09/14 10:22:14;;;;;;;6.03;1.73;;;;;;;;;;5122030;27;20242;-74
2023/09/14 10:24:41;;;;;;;10.88;1.73;;;;;;;;;;5146017;27;20673;-72
2023/09/14 10:27:08;;;;;;;6.75;1.70;;;;;;;;;;5112846;27;20649;-73
2023/09/14 10:29:37;;;;;;;9.75;2.05;;;;;;;;;;5135570;27;20186;-73
2023/09/14 10:32:05;;;;;;;7.18;2.08;;;;;;;;;;5139036;27;20186;-74
2023/09/14 10:34:33;;;;;;;8.05;1.75;;;;;;;;;;5146247;27;20240;-74
2023/09/14 10:36:59;;;;;;;6.65;1.80;;;;;;;;;;5130464;27;20196;-74
2023/09/14 10:39:25;;;;;;;7.40;1.65;;;;;;;;;;5122001;27;20175;-74
2023/09/14 10:41:51;;;;;;;7.13;1.70;;;;;;;;;;5131092;27;20186;-74
2023/09/14 10:44:17;;;;;;;4.85;1.55;;;;;;;;;;5135094;27;20205;-74
2023/09/14 10:46:44;;;;;;;13.38;2.10;;;;;;;;;;5145564;27;20182;-74
2023/09/14 10:49:10;;;;;;;5.22;1.60;;;;;;;;;;5125010;27;20609;-74
2023/09/14 10:51:35;;;;;;;11.27;2.55;;;;;;;;;;5129502;27;20227;-74
2023/09/14 10:54:02;;;;;;;5.75;2.13;;;;;;;;;;5122225;27;20235;-74
2023/09/14 10:56:31;;;;;;;9.73;2.25;;;;;;;;;;5123827;27;20265;-74
2023/09/14 10:58:57;;;;;;;5.13;1.65;;;;;;;;;;5132724;27;20233;-73
2023/09/14 11:01:27;;;;;;;8.60;1.80;;;;;;;;;;5150886;27;20187;-74
2023/09/14 11:04:13;;;;;;;6.47;2.03;;;;;;;;;;5141523;27;20190;-73
2023/09/14 11:06:50;;;;;;;6.07;1.55;;;;;;;;;;5128937;27;20179;-72
2023/09/14 11:09:17;;;;;;;6.30;1.98;;;;;;;;;;5124950;27;20196;-74
2023/09/14 11:11:45;;;;;;;8.40;1.90;;;;;;;;;;5140787;27;20170;-74
2023/09/14 11:14:13;;;;;;;8.95;1.80;;;;;;;;;;5117670;27;20687;-74
2023/09/14 11:16:56;;;;;;;4.40;1.75;;;;;;;;;;5098949;27;20665;-73
2023/09/14 11:19:34;;;;;;;4.88;1.50;;;;;;;;;;5145504;27;20245;-74
2023/09/14 11:22:13;;;;;;;8.60;2.03;;;;;;;;;;5128255;27;20542;-73
2023/09/14 11:24:39;;;;;;;9.18;2.00;;;;;;;;;;5139571;27;20186;-74
2023/09/14 11:27:05;;;;;;;8.38;1.90;;;;;;;;;;5133610;27;20243;-73
2023/09/14 11:29:31;;;;;;;5.22;1.90;;;;;;;;;;5145784;27;20610;-73
2023/09/14 11:31:59;;;;;;;6.18;2.17;;;;;;;;;;5148495;27;20199;-74
2023/09/14 11:34:26;;;;;;;6.57;1.77;;;;;;;;;;5128119;27;20239;-72
2023/09/14 11:36:53;;;;;;;7.45;2.00;;;;;;;;;;5131217;27;20182;-74
2023/09/14 11:39:19;;;;;;;6.32;1.75;;;;;;;;;;5115714;27;20194;-73
2023/09/14 11:41:47;;;;;;;8.13;1.98;;;;;;;;;;5137383;27;20206;-74
2023/09/14 11:44:12;;;;;;;4.28;1.60;;;;;;;;;;5133823;27;20260;-74
2023/09/14 11:46:38;;;;;;;5.15;1.45;;;;;;;;;;5129357;27;20262;-73
2023/09/14 11:49:04;;;;;;;4.75;1.70;;;;;;;;;;5136468;27;20174;-72
2023/09/14 11:51:31;;;;;;;5.85;2.00;;;;;;;;;;5143084;27;20228;-73
2023/09/14 11:53:59;;;;;;;7.07;1.83;;;;;;;;;;4436991;27;10000770;-74
2023/09/14 11:56:26;;;;;;;8.05;1.92;;;;;;;;;;5106612;27;20245;-74
2023/09/14 11:58:51;;;;;;;5.72;1.75;;;;;;;;;;5117332;27;20210;-74
2023/09/14 12:01:18;;;;;;;6.28;1.85;;;;;;;;;;5123209;27;20208;-75
2023/09/14 12:03:44;;;;;;;3.70;1.80;;;;;;;;;;5122104;27;20289;-72
2023/09/14 12:06:09;;;;;;;10.18;2.15;;;;;;;;;;5116418;27;20297;-73
2023/09/14 12:08:35;;;;;;;3.95;1.90;;;;;;;;;;5113320;27;20299;-73
2023/09/14 12:11:00;;;;;;;7.38;1.98;;;;;;;;;;5107219;27;20188;-73
2023/09/14 12:13:26;;;;;;;9.50;2.25;;;;;;;;;;5119226;27;20298;-73
2023/09/14 12:16:00;;;;;;;5.70;1.90;;;;;;;;;;5118140;27;20203;-74
2023/09/14 12:18:40;;;;;;;6.00;1.95;;;;;;;;;;5118539;27;20221;-73
2023/09/14 12:21:08;;;;;;;11.45;2.17;;;;;;;;;;5127026;27;20183;-73
2023/09/14 12:23:36;;;;;;;5.38;2.00;;;;;;;;;;5115136;27;20206;-73
2023/09/14 12:26:02;;;;;;;5.57;1.70;;;;;;;;;;5113060;27;20582;-73
2023/09/14 12:28:27;;;;;;;7.22;2.00;;;;;;;;;;5114033;27;20216;-73
2023/09/14 12:30:53;;;;;;;5.63;2.08;;;;;;;;;;5125783;27;20193;-73
2023/09/14 12:33:18;;;;;;;4.68;2.20;;;;;;;;;;5117098;27;20183;-74
2023/09/14 12:35:45;;;;;;;9.10;2.10;;;;;;;;;;5111320;27;20241;-74
2023/09/14 12:38:10;;;;;;;6.70;2.10;;;;;;;;;;5113539;27;20171;-74
2023/09/14 12:40:38;;;;;;;4.30;1.92;;;;;;;;;;5117201;27;20657;-74
2023/09/14 12:43:04;;;;;;;5.00;2.10;;;;;;;;;;5106090;28;20214;-73
2023/09/14 12:45:33;;;;;;;5.50;1.92;;;;;;;;;;5126408;27;20521;-73
2023/09/14 12:48:04;;;;;;;5.97;2.47;;;;;;;;;;5126464;27;20202;-74
2023/09/14 12:50:33;;;;;;;7.72;2.33;;;;;;;;;;5110993;28;20187;-73
2023/09/14 12:52:58;;;;;;;7.72;2.22;;;;;;;;;;5115545;27;20180;-74
2023/09/14 12:55:26;;;;;;;8.05;2.25;;;;;;;;;;5116022;27;20203;-74
2023/09/14 12:57:53;;;;;;;6.25;2.58;;;;;;;;;;5119905;27;20182;-74
2023/09/14 13:00:25;;;;;;;6.55;2.47;;;;;;;;;;5131627;27;20194;-73
2023/09/14 13:02:52;;;;;;;5.15;1.80;;;;;;;;;;5131838;27;20183;-73
2023/09/14 13:05:22;;;;;;;6.47;2.03;;;;;;;;;;5125168;27;20722;-73
2023/09/14 13:07:52;;;;;;;8.32;2.58;;;;;;;;;;5145006;27;20634;-74
2023/09/14 13:10:23;;;;;;;3.78;1.88;;;;;;;;;;5135914;27;21322;-72
2023/09/14 13:12:53;;;;;;;6.70;1.98;;;;;;;;;;5104452;28;20197;-72
2023/09/14 13:15:23;;;;;;;5.22;2.10;;;;;;;;;;5113875;27;20201;-73
2023/09/14 13:17:53;;;;;;;6.20;2.30;;;;;;;;;;5142865;27;20354;-74
2023/09/14 13:20:19;;;;;;;6.22;1.75;;;;;;;;;;5130510;27;20218;-74
2023/09/14 13:22:46;;;;;;;8.18;2.25;;;;;;;;;;5120738;27;20246;-74
2023/09/14 13:25:11;;;;;;;4.40;1.80;;;;;;;;;;5128403;27;20197;-74
2023/09/14 13:27:40;;;;;;;6.78;2.15;;;;;;;;;;5116983;27;20207;-74
2023/09/14 13:30:09;;;;;;;4.28;2.15;;;;;;;;;;5123749;27;20186;-74
2023/09/14 13:32:36;;;;;;;7.90;2.40;;;;;;;;;;5124433;27;20174;-74
2023/09/14 13:35:03;;;;;;;4.93;2.45;;;;;;;;;;5138972;27;20281;-74
2023/09/14 13:37:29;;;;;;;7.97;2.55;;;;;;;;;;5138180;27;20206;-72
2023/09/14 13:39:55;;;;;;;9.75;2.55;;;;;;;;;;5148430;27;20221;-72
2023/09/14 13:42:21;;;;;;;7.57;2.53;;;;;;;;;;5129190;27;20202;-73
2023/09/14 13:44:46;;;;;;;8.73;2.50;;;;;;;;;;5123233;27;20270;-73
2023/09/14 13:47:12;;;;;;;8.80;2.33;;;;;;;;;;5136375;27;20207;-73
2023/09/14 13:49:38;;;;;;;6.60;2.22;;;;;;;;;;5130493;27;20266;-74
2023/09/14 13:52:05;;;;;;;6.28;2.28;;;;;;;;;;5139891;27;20202;-73
2023/09/14 13:54:30;;;;;;;5.75;2.63;;;;;;;;;;5151464;27;20190;-72
2023/09/14 13:56:56;;;;;;;5.65;2.50;;;;;;;;;;5142739;27;20752;-74
2023/09/14 13:59:22;;;;;;;6.40;2.42;;;;;;;;;;5134630;27;20258;-74
2023/09/14 14:01:47;;;;;;;6.78;2.67;;;;;;;;;;5140768;27;20319;-73
2023/09/14 14:04:14;;;;;;;6.32;2.30;;;;;;;;;;5125050;27;20277;-73
2023/09/14 14:06:39;;;;;;;5.93;2.55;;;;;;;;;;5128589;27;20186;-71
2023/09/14 14:09:05;;;;;;;6.75;2.35;;;;;;;;;;5126623;27;20218;-74
2023/09/14 14:11:30;;;;;;;5.35;2.63;;;;;;;;;;5151077;27;20189;-74
2023/09/14 14:13:58;;;;;;;5.97;1.90;;;;;;;;;;5109986;27;20279;-73
2023/09/14 14:16:23;;;;;;;7.10;2.50;;;;;;;;;;5130115;27;20194;-73
2023/09/14 14:18:48;;;;;;;6.95;2.13;;;;;;;;;;5138837;27;20703;-73
2023/09/14 14:21:14;;;;;;;7.07;2.20;;;;;;;;;;5119038;27;20229;-74
2023/09/14 14:23:39;;;;;;;4.72;2.40;;;;;;;;;;5128709;27;20189;-74
2023/09/14 14:26:05;;;;;;;5.57;2.60;;;;;;;;;;5116294;27;20548;-72
2023/09/14 14:28:30;;;;;;;5.93;2.67;;;;;;;;;;5144451;27;20269;-73
2023/09/14 14:30:56;;;;;;;6.22;2.42;;;;;;;;;;5109660;27;20189;-73
2023/09/14 14:33:21;;;;;;;7.18;2.63;;;;;;;;;;5143054;27;20665;-73
2023/09/14 14:35:46;;;;;;;13.20;2.75;;;;;;;;;;5136781;27;20284;-73
2023/09/14 14:38:12;;;;;;;6.03;2.65;;;;;;;;;;5142155;27;20179;-73